createdAt,value
2022-10-04T00:01:54.510Z,16.52
2022-10-04T00:04:28.711Z,16.53
2022-10-04T00:07:01.934Z,16.56
2022-10-04T00:09:36.321Z,16.56
2022-10-04T00:12:07.532Z,16.54
2022-10-04T00:14:40.198Z,16.54
2022-10-04T00:17:13.624Z,16.55
2022-10-04T00:19:45.753Z,16.53
2022-10-04T00:22:22.687Z,16.53
2022-10-04T00:25:18.777Z,16.55
2022-10-04T00:28:28.702Z,16.54
2022-10-04T00:31:14.939Z,16.54
2022-10-04T00:33:44.794Z,16.57
2022-10-04T00:36:52.384Z,16.56
2022-10-04T00:39:39.980Z,16.57
2022-10-04T00:42:50.274Z,16.56
2022-10-04T00:45:28.654Z,16.54
2022-10-04T00:48:16.166Z,16.55
2022-10-04T00:50:50.401Z,16.55
2022-10-04T00:53:25.011Z,16.52
2022-10-04T00:55:57.142Z,16.49
2022-10-04T00:58:28.571Z,16.54
2022-10-04T01:00:59.076Z,16.56
2022-10-04T01:03:31.806Z,16.60
2022-10-04T01:06:05.488Z,16.58
2022-10-04T01:08:35.912Z,16.62
2022-10-04T01:11:08.078Z,16.63
2022-10-04T01:13:41.108Z,16.63
2022-10-04T01:16:17.142Z,16.66
2022-10-04T01:18:46.033Z,16.66
2022-10-04T01:21:27.291Z,16.67
2022-10-04T01:24:17.747Z,16.68
2022-10-04T01:26:47.551Z,16.69
2022-10-04T01:29:18.674Z,16.67
2022-10-04T01:31:48.660Z,16.70
2022-10-04T01:34:19.265Z,16.71
2022-10-04T01:36:49.355Z,16.68
2022-10-04T01:39:20.850Z,16.69
2022-10-04T01:41:54.136Z,16.69
2022-10-04T01:44:29.913Z,16.71
2022-10-04T01:47:02.941Z,16.72
2022-10-04T01:49:35.651Z,16.70
2022-10-04T01:52:08.653Z,16.70
2022-10-04T01:54:43.699Z,16.70
2022-10-04T01:57:17.382Z,16.71
2022-10-04T01:59:51.633Z,16.68
2022-10-04T02:02:26.633Z,16.72
2022-10-04T02:04:59.185Z,16.72
2022-10-04T02:07:32.575Z,16.72
2022-10-04T02:10:06.358Z,16.72
2022-10-04T02:12:36.026Z,16.75
2022-10-04T02:15:07.998Z,16.74
2022-10-04T02:17:43.134Z,16.75
2022-10-04T02:20:16.436Z,16.74
2022-10-04T02:22:46.413Z,16.77
2022-10-04T02:25:17.289Z,16.75
2022-10-04T02:27:45.641Z,16.77
2022-10-04T02:30:14.843Z,16.79
2022-10-04T02:33:00.044Z,16.80
2022-10-04T02:35:31.097Z,16.77
2022-10-04T02:38:11.032Z,16.79
2022-10-04T02:40:46.674Z,16.78
2022-10-04T02:43:20.083Z,16.81
2022-10-04T02:45:51.977Z,16.80
2022-10-04T02:48:36.855Z,16.78
2022-10-04T02:51:18.828Z,16.76
2022-10-04T02:53:53.677Z,16.79
2022-10-04T02:56:25.318Z,16.77
2022-10-04T02:58:54.561Z,16.79
2022-10-04T03:01:28.577Z,16.77
2022-10-04T03:03:58.372Z,16.78
2022-10-04T03:06:33.158Z,16.76
2022-10-04T03:09:04.514Z,16.76
2022-10-04T03:11:37.309Z,16.76
2022-10-04T03:14:10.545Z,16.77
2022-10-04T03:16:41.965Z,16.78
2022-10-04T03:19:11.008Z,16.78
2022-10-04T03:21:41.752Z,16.76
2022-10-04T03:24:15.589Z,16.79
2022-10-04T03:26:47.945Z,16.76
2022-10-04T03:29:19.309Z,16.77
2022-10-04T03:31:50.526Z,16.77
2022-10-04T03:34:21.961Z,16.77
2022-10-04T03:36:52.357Z,16.79
2022-10-04T03:39:28.913Z,16.79
2022-10-04T03:41:59.142Z,16.80
2022-10-04T03:44:27.639Z,16.81
2022-10-04T03:46:56.280Z,16.80
2022-10-04T03:49:34.185Z,16.81
2022-10-04T03:52:04.240Z,16.85
2022-10-04T03:54:33.859Z,16.89
2022-10-04T03:57:04.067Z,16.91
2022-10-04T03:59:32.257Z,16.90
2022-10-04T04:02:11.365Z,16.92
2022-10-04T04:04:50.530Z,16.92
2022-10-04T04:07:25.089Z,16.93
2022-10-04T04:09:59.689Z,16.93
2022-10-04T04:12:39.748Z,16.93
2022-10-04T04:15:12.055Z,16.93
2022-10-04T04:17:42.617Z,16.93
2022-10-04T04:20:29.023Z,16.93
2022-10-04T04:23:02.044Z,16.94
2022-10-04T04:25:33.283Z,16.95
2022-10-04T04:28:14.775Z,17.00
2022-10-04T04:30:47.541Z,16.98
2022-10-04T04:33:32.640Z,16.97
2022-10-04T04:36:06.489Z,16.97
2022-10-04T04:38:35.577Z,16.99
2022-10-04T04:41:11.171Z,16.98
2022-10-04T04:43:45.164Z,16.99
2022-10-04T04:46:29.454Z,16.95
2022-10-04T04:49:04.004Z,16.97
2022-10-04T04:51:34.385Z,16.99
2022-10-04T04:54:05.080Z,16.95
2022-10-04T04:56:34.270Z,16.99
2022-10-04T04:59:07.652Z,16.98
2022-10-04T05:01:37.488Z,16.97
2022-10-04T05:04:16.243Z,16.98
2022-10-04T05:06:46.998Z,16.99
2022-10-04T05:09:24.803Z,16.96
2022-10-04T05:11:57.386Z,16.98
2022-10-04T05:14:27.425Z,16.99
2022-10-04T05:16:56.741Z,17.00
2022-10-04T05:19:30.647Z,17.00
2022-10-04T05:22:01.165Z,16.99
2022-10-04T05:24:31.823Z,17.02
2022-10-04T05:27:02.949Z,17.00
2022-10-04T05:29:35.700Z,16.97
2022-10-04T05:32:20.737Z,16.93
2022-10-04T05:34:51.613Z,16.90
2022-10-04T05:37:42.888Z,16.91
2022-10-04T05:40:28.902Z,16.88
2022-10-04T05:42:58.454Z,16.86
2022-10-04T05:45:30.119Z,16.88
2022-10-04T05:47:59.930Z,16.88
2022-10-04T05:50:33.321Z,16.88
2022-10-04T05:53:20.745Z,16.88
2022-10-04T05:55:58.384Z,16.84
2022-10-04T05:58:48.334Z,16.86
2022-10-04T06:01:31.562Z,16.84
2022-10-04T06:04:48.560Z,16.84
2022-10-04T06:07:24.474Z,16.86
2022-10-04T06:10:28.261Z,16.85
2022-10-04T06:13:03.471Z,16.86
2022-10-04T06:15:57.656Z,16.90
2022-10-04T06:18:43.460Z,16.91
2022-10-04T06:21:23.660Z,16.92
2022-10-04T06:24:00.536Z,16.95
2022-10-04T06:26:35.783Z,16.98
2022-10-04T06:29:12.218Z,16.99
2022-10-04T06:32:12.210Z,17.00
2022-10-04T06:35:02.139Z,17.04
2022-10-04T06:37:52.545Z,17.03
2022-10-04T06:40:49.744Z,17.01
2022-10-04T06:43:47.322Z,16.97
2022-10-04T06:46:23.334Z,16.99
2022-10-04T06:49:19.399Z,16.97
2022-10-04T06:52:13.505Z,16.98
2022-10-04T06:54:58.198Z,16.95
2022-10-04T06:57:51.262Z,16.94
2022-10-04T07:00:23.183Z,17.00
2022-10-04T07:02:54.936Z,17.02
2022-10-04T07:05:30.734Z,17.08
2022-10-04T07:08:11.131Z,17.09
2022-10-04T07:10:48.400Z,17.14
2022-10-04T07:13:41.653Z,17.10
2022-10-04T07:16:24.659Z,17.13
2022-10-04T07:19:11.244Z,17.15
2022-10-04T07:21:46.752Z,17.15
2022-10-04T07:24:25.810Z,17.13
2022-10-04T07:26:56.301Z,17.12
2022-10-04T07:29:28.269Z,17.16
2022-10-04T07:32:08.650Z,17.16
2022-10-04T07:34:41.512Z,17.16
2022-10-04T07:37:13.017Z,17.18
2022-10-04T07:39:50.553Z,17.19
2022-10-04T07:42:26.570Z,17.22
2022-10-04T07:45:07.264Z,17.22
2022-10-04T07:47:35.517Z,17.22
2022-10-04T07:50:21.698Z,17.24
2022-10-04T07:52:54.895Z,17.27
2022-10-04T07:55:29.939Z,17.28
2022-10-04T07:58:41.029Z,17.28
2022-10-04T08:01:25.065Z,17.30
2022-10-04T08:04:13.053Z,17.34
2022-10-04T08:06:53.647Z,17.38
2022-10-04T08:09:43.462Z,17.41
2022-10-04T08:12:21.758Z,17.45
2022-10-04T08:14:55.922Z,17.45
2022-10-04T08:17:41.829Z,17.47
2022-10-04T08:20:30.636Z,17.49
2022-10-04T08:23:09.099Z,17.49
2022-10-04T08:25:48.229Z,17.48
2022-10-04T08:28:46.339Z,17.51
2022-10-04T08:31:27.690Z,17.48
2022-10-04T08:34:13.497Z,17.50
2022-10-04T08:36:54.785Z,17.54
2022-10-04T08:39:37.332Z,17.55
2022-10-04T08:42:33.246Z,17.58
2022-10-04T08:45:34.907Z,17.54
2022-10-04T08:48:38.783Z,17.54
2022-10-04T08:51:32.043Z,17.53
2022-10-04T08:54:25.559Z,17.61
2022-10-04T08:57:06.534Z,17.61
2022-10-04T09:00:00.208Z,17.62
2022-10-04T09:03:05.675Z,17.64
2022-10-04T09:05:47.782Z,17.72
2022-10-04T09:08:52.804Z,17.74
2022-10-04T09:11:46.936Z,17.79
2022-10-04T09:14:36.032Z,17.81
2022-10-04T09:17:22.490Z,17.82
2022-10-04T09:20:13.947Z,17.83
2022-10-04T09:22:51.513Z,17.81
2022-10-04T09:25:49.412Z,17.82
2022-10-04T09:29:01.148Z,17.88
2022-10-04T09:32:03.015Z,17.90
2022-10-04T09:34:42.774Z,17.94
2022-10-04T09:37:26.268Z,17.97
2022-10-04T09:40:38.006Z,17.97
2022-10-04T09:43:35.152Z,17.99
2022-10-04T09:46:29.795Z,18.02
2022-10-04T09:49:09.515Z,18.07
2022-10-04T09:52:02.972Z,18.07
2022-10-04T09:54:56.961Z,18.08
2022-10-04T09:57:39.324Z,18.08
2022-10-04T10:00:24.946Z,18.08
2022-10-04T10:03:47.407Z,18.04
2022-10-04T10:06:37.568Z,17.95
2022-10-04T10:09:19.764Z,17.95
2022-10-04T10:12:17.496Z,17.91
2022-10-04T10:15:16.989Z,17.82
2022-10-04T10:17:56.349Z,17.73
2022-10-04T10:21:09.855Z,17.68
2022-10-04T10:23:56.928Z,17.63
2022-10-04T10:26:39.593Z,17.61
2022-10-04T10:29:26.256Z,17.56
2022-10-04T10:32:21.453Z,17.55
2022-10-04T10:35:19.259Z,17.57
2022-10-04T10:38:04.837Z,17.53
2022-10-04T10:40:53.997Z,17.50
2022-10-04T10:43:46.663Z,17.45
2022-10-04T10:46:28.639Z,17.44
2022-10-04T10:49:22.367Z,17.42
2022-10-04T10:52:25.665Z,17.46
2022-10-04T10:55:27.025Z,17.49
2022-10-04T10:58:22.889Z,17.51
2022-10-04T11:01:01.444Z,17.56
2022-10-04T11:03:57.286Z,17.59
2022-10-04T11:06:57.130Z,17.67
2022-10-04T11:09:35.427Z,17.77
2022-10-04T11:12:42.863Z,17.82
2022-10-04T11:15:49.856Z,17.85
2022-10-04T11:18:51.355Z,17.88
2022-10-04T11:21:55.788Z,17.87
2022-10-04T11:25:02.087Z,17.90
2022-10-04T11:27:49.680Z,17.91
2022-10-04T11:30:25.234Z,17.92
2022-10-04T11:33:40.777Z,17.89
2022-10-04T11:36:31.191Z,17.93
2022-10-04T11:39:25.465Z,17.98
2022-10-04T11:42:02.469Z,17.99
2022-10-04T11:44:55.390Z,18.00
2022-10-04T11:47:49.720Z,18.01
2022-10-04T11:50:29.815Z,18.00
2022-10-04T11:53:31.173Z,17.98
2022-10-04T11:56:17.509Z,18.03
2022-10-04T11:58:58.502Z,18.02
2022-10-04T12:01:46.959Z,18.07
2022-10-04T12:04:41.738Z,18.11
2022-10-04T12:07:31.579Z,18.13
2022-10-04T12:10:15.009Z,18.20
2022-10-04T12:13:04.268Z,18.24
2022-10-04T12:15:45.541Z,18.28
2022-10-04T12:18:44.287Z,18.35
2022-10-04T12:21:34.914Z,18.35
2022-10-04T12:24:29.258Z,18.42
2022-10-04T12:27:14.711Z,18.46
2022-10-04T12:30:15.734Z,18.54
2022-10-04T12:32:58.419Z,18.58
2022-10-04T12:35:36.868Z,18.60
2022-10-04T12:38:22.501Z,18.61
2022-10-04T12:41:01.235Z,18.69
2022-10-04T12:43:38.485Z,18.73
2022-10-04T12:46:26.418Z,18.75
2022-10-04T12:49:08.532Z,18.81
2022-10-04T12:51:44.465Z,18.84
2022-10-04T12:54:24.871Z,18.92
2022-10-04T12:57:07.702Z,18.93
2022-10-04T12:59:50.392Z,18.94
2022-10-04T13:02:50.221Z,18.92
2022-10-04T13:05:24.733Z,18.86
2022-10-04T13:08:32.555Z,18.79
2022-10-04T13:11:39.818Z,18.75
2022-10-04T13:14:56.131Z,18.72
2022-10-04T13:17:36.692Z,18.70
2022-10-04T13:20:31.294Z,18.67
2022-10-04T13:23:05.327Z,18.63
2022-10-04T13:26:03.959Z,18.56
2022-10-04T13:28:41.293Z,18.53
2022-10-04T13:31:16.909Z,18.49
2022-10-04T13:33:52.592Z,18.49
2022-10-04T13:36:30.602Z,18.45
2022-10-04T13:39:31.492Z,18.44
2022-10-04T13:42:15.203Z,18.43
2022-10-04T13:45:06.092Z,18.41
2022-10-04T13:47:57.084Z,18.38
2022-10-04T13:50:38.789Z,18.36
2022-10-04T13:53:41.507Z,18.35
2022-10-04T13:56:40.097Z,18.30
2022-10-04T13:59:18.697Z,18.30
2022-10-04T14:02:21.273Z,18.27
2022-10-04T14:05:19.026Z,18.27
2022-10-04T14:08:21.510Z,18.24
2022-10-04T14:11:09.291Z,18.24
2022-10-04T14:14:04.312Z,18.25
2022-10-04T14:17:14.161Z,18.23
2022-10-04T14:20:31.404Z,18.22
2022-10-04T14:23:23.450Z,18.18
2022-10-04T14:26:30.173Z,18.12
2022-10-04T14:29:28.958Z,18.10
2022-10-04T14:32:45.894Z,18.10
2022-10-04T14:35:21.965Z,18.12
2022-10-04T14:38:31.750Z,18.12
2022-10-04T14:41:41.454Z,18.17
2022-10-04T14:44:34.880Z,18.20
2022-10-04T14:47:20.025Z,18.21
2022-10-04T14:50:05.274Z,18.19
2022-10-04T14:52:46.727Z,18.23
2022-10-04T14:55:31.299Z,18.24
2022-10-04T14:58:17.500Z,18.22
2022-10-04T15:01:19.112Z,18.19
2022-10-04T15:03:51.465Z,18.19
2022-10-04T15:06:36.820Z,18.20
2022-10-04T15:09:31.038Z,18.19
2022-10-04T15:12:29.644Z,18.14
2022-10-04T15:15:21.323Z,18.18
2022-10-04T15:18:04.216Z,18.16
2022-10-04T15:20:39.143Z,18.13
2022-10-04T15:23:17.109Z,18.11
2022-10-04T15:25:48.156Z,18.10
2022-10-04T15:28:41.960Z,18.11
2022-10-04T15:31:17.486Z,18.01
2022-10-04T15:33:56.628Z,18.00
2022-10-04T15:36:39.777Z,17.94
2022-10-04T15:39:41.241Z,17.85
2022-10-04T15:42:14.891Z,17.79
2022-10-04T15:45:22.884Z,17.78
2022-10-04T15:48:11.402Z,17.68
2022-10-04T15:50:56.061Z,17.71
2022-10-04T15:53:50.924Z,17.70
2022-10-04T15:56:37.667Z,17.66
2022-10-04T15:59:36.428Z,17.70
2022-10-04T16:02:48.747Z,17.67
2022-10-04T16:05:25.516Z,17.66
2022-10-04T16:08:33.406Z,17.70
2022-10-04T16:11:15.089Z,17.73
2022-10-04T16:13:56.984Z,17.72
2022-10-04T16:16:48.474Z,17.69
2022-10-04T16:19:34.483Z,17.68
2022-10-04T16:22:16.429Z,17.68
2022-10-04T16:24:51.468Z,17.65
2022-10-04T16:27:46.246Z,17.66
2022-10-04T16:30:27.036Z,17.64
2022-10-04T16:33:15.121Z,17.63
2022-10-04T16:35:49.358Z,17.60
2022-10-04T16:38:25.794Z,17.59
2022-10-04T16:41:14.519Z,17.58
2022-10-04T16:43:52.955Z,17.53
2022-10-04T16:46:30.999Z,17.51
2022-10-04T16:49:02.380Z,17.49
2022-10-04T16:51:40.601Z,17.48
2022-10-04T16:54:32.379Z,17.45
2022-10-04T16:57:14.700Z,17.41
2022-10-04T16:59:51.433Z,17.34
2022-10-04T17:02:51.665Z,17.34
2022-10-04T17:05:39.508Z,17.29
2022-10-04T17:08:25.920Z,17.27
2022-10-04T17:11:39.453Z,17.22
2022-10-04T17:14:32.193Z,17.20
2022-10-04T17:17:03.276Z,17.19
2022-10-04T17:19:35.578Z,17.18
2022-10-04T17:22:21.847Z,17.15
2022-10-04T17:25:02.178Z,17.07
2022-10-04T17:27:47.219Z,17.11
2022-10-04T17:30:18.943Z,17.12
2022-10-04T17:33:17.900Z,17.11
2022-10-04T17:36:23.185Z,17.03
2022-10-04T17:39:03.398Z,17.04
2022-10-04T17:41:50.747Z,17.06
2022-10-04T17:44:34.395Z,17.05
2022-10-04T17:47:14.102Z,17.05
2022-10-04T17:50:10.992Z,16.97
2022-10-04T17:53:02.753Z,16.94
2022-10-04T17:55:38.490Z,16.85
2022-10-04T17:58:17.110Z,16.83
2022-10-04T18:00:54.057Z,16.75
2022-10-04T18:03:26.828Z,16.72
2022-10-04T18:05:59.397Z,16.68
2022-10-04T18:08:41.488Z,16.66
2022-10-04T18:11:22.125Z,16.61
2022-10-04T18:14:00.792Z,16.65
2022-10-04T18:16:32.107Z,16.66
2022-10-04T18:19:24.456Z,16.61
2022-10-04T18:21:54.447Z,16.62
2022-10-04T18:24:29.521Z,16.59
2022-10-04T18:27:05.136Z,16.54
2022-10-04T18:29:40.128Z,16.53
2022-10-04T18:32:31.798Z,16.55
2022-10-04T18:35:00.830Z,16.53
2022-10-04T18:37:34.746Z,16.55
2022-10-04T18:40:15.212Z,16.56
2022-10-04T18:42:44.967Z,16.57
2022-10-04T18:45:31.542Z,16.58
2022-10-04T18:48:02.576Z,16.56
2022-10-04T18:50:35.741Z,16.54
2022-10-04T18:53:21.555Z,16.55
2022-10-04T18:55:59.708Z,16.54
2022-10-04T18:58:59.349Z,16.51
2022-10-04T19:02:03.707Z,16.49
2022-10-04T19:05:02.240Z,16.50
2022-10-04T19:07:40.153Z,16.52
2022-10-04T19:10:17.944Z,16.53
2022-10-04T19:12:57.879Z,16.53
2022-10-04T19:15:43.005Z,16.56
2022-10-04T19:18:29.334Z,16.54
2022-10-04T19:21:05.294Z,16.56
2022-10-04T19:23:42.483Z,16.55
2022-10-04T19:29:14.820Z,16.59
2022-10-04T19:31:54.037Z,16.53
2022-10-04T19:34:35.630Z,16.51
2022-10-04T19:37:12.923Z,16.55
2022-10-04T19:39:55.315Z,16.54
2022-10-04T19:42:33.534Z,16.53
2022-10-04T19:45:18.895Z,16.52
2022-10-04T19:47:52.975Z,16.51
2022-10-04T19:50:26.241Z,16.49
2022-10-04T19:53:01.379Z,16.50
2022-10-04T19:55:43.255Z,16.56
2022-10-04T19:58:34.075Z,16.51
2022-10-04T20:01:03.602Z,16.50
2022-10-04T20:03:35.476Z,16.50
2022-10-04T20:06:09.580Z,16.50
2022-10-04T20:09:01.832Z,16.54
2022-10-04T20:11:50.402Z,16.57
2022-10-04T20:14:56.067Z,16.54
2022-10-04T20:17:35.555Z,16.59
2022-10-04T20:20:04.669Z,16.60
2022-10-04T20:23:01.316Z,16.55
2022-10-04T20:26:09.095Z,16.53
2022-10-04T20:28:45.798Z,16.56
2022-10-04T20:31:48.515Z,16.58
2022-10-04T20:34:49.912Z,16.52
2022-10-04T20:37:20.138Z,16.51
2022-10-04T20:40:02.525Z,16.50
2022-10-04T20:42:39.911Z,16.50
2022-10-04T20:45:23.961Z,16.47
2022-10-04T20:47:58.257Z,16.50
2022-10-04T20:50:43.658Z,16.48
2022-10-04T20:53:22.001Z,16.47
2022-10-04T20:55:58.901Z,16.48
2022-10-04T20:58:33.163Z,16.53
2022-10-04T21:01:14.302Z,16.52
2022-10-04T21:03:48.173Z,16.52
2022-10-04T21:06:17.537Z,16.53
2022-10-04T21:08:47.256Z,16.53
2022-10-04T21:11:23.036Z,16.53
2022-10-04T21:13:55.887Z,16.49
2022-10-04T21:16:47.566Z,16.45
2022-10-04T21:19:47.711Z,16.46
2022-10-04T21:22:47.694Z,16.43
2022-10-04T21:25:35.800Z,16.44
2022-10-04T21:28:37.401Z,16.45
2022-10-04T21:31:07.177Z,16.45
2022-10-04T21:33:38.787Z,16.45
2022-10-04T21:36:08.500Z,16.46
2022-10-04T21:38:37.873Z,16.46
2022-10-04T21:41:07.230Z,16.46
2022-10-04T21:43:37.124Z,16.47
2022-10-04T21:46:06.148Z,16.49
2022-10-04T21:48:34.617Z,16.48
2022-10-04T21:51:02.896Z,16.50
2022-10-04T21:53:31.239Z,16.49
2022-10-04T21:55:59.441Z,16.48
2022-10-04T21:58:27.544Z,16.46
2022-10-04T22:00:57.109Z,16.49
2022-10-04T22:03:25.196Z,16.46
2022-10-04T22:05:53.314Z,16.46
2022-10-04T22:08:21.439Z,16.46
2022-10-04T22:10:52.229Z,16.44
2022-10-04T22:13:22.302Z,16.45
2022-10-04T22:15:50.466Z,16.46
2022-10-04T22:18:20.102Z,16.46
2022-10-04T22:20:48.175Z,16.46
2022-10-04T22:23:19.642Z,16.49
2022-10-04T22:25:48.222Z,16.49
2022-10-04T22:28:22.080Z,16.49
2022-10-04T22:30:50.814Z,16.49
2022-10-04T22:33:36.184Z,16.48
2022-10-04T22:36:14.531Z,16.49
2022-10-04T22:38:43.915Z,16.54
2022-10-04T22:41:13.577Z,16.57
2022-10-04T22:43:41.963Z,16.56
2022-10-04T22:46:16.201Z,16.54
2022-10-04T22:48:47.224Z,16.54
2022-10-04T22:51:16.513Z,16.52
2022-10-04T22:53:46.152Z,16.52
2022-10-04T22:56:15.196Z,16.52
2022-10-04T22:58:44.129Z,16.51
2022-10-04T23:01:14.075Z,16.53
2022-10-04T23:03:48.455Z,16.51
2022-10-04T23:06:17.222Z,16.50
2022-10-04T23:08:45.809Z,16.48
2022-10-04T23:11:13.986Z,16.49
2022-10-04T23:13:42.117Z,16.47
2022-10-04T23:16:14.551Z,16.48
2022-10-04T23:18:42.835Z,16.47
2022-10-04T23:21:22.803Z,16.47
2022-10-04T23:23:52.996Z,16.45
2022-10-04T23:26:24.880Z,16.44
2022-10-04T23:28:53.449Z,16.51
2022-10-04T23:31:25.075Z,16.49
2022-10-04T23:33:56.151Z,16.58
2022-10-04T23:36:26.197Z,16.52
2022-10-04T23:38:58.285Z,16.55
2022-10-04T23:41:26.985Z,16.52
2022-10-04T23:43:55.398Z,16.51
2022-10-04T23:46:25.097Z,16.51
2022-10-04T23:48:53.421Z,16.55
2022-10-04T23:51:21.817Z,16.52
2022-10-04T23:53:51.785Z,16.52
2022-10-04T23:56:23.111Z,16.58
2022-10-04T23:58:52.856Z,16.59
